createdAt,value
2016-06-16T00:00:43.928Z,22.29
2016-06-16T00:01:43.916Z,22.3
2016-06-16T00:02:43.903Z,22.31
2016-06-16T00:03:43.891Z,22.29
2016-06-16T00:04:43.862Z,22.35
2016-06-16T00:05:43.865Z,22.2
2016-06-16T00:06:43.837Z,22.31
2016-06-16T00:07:43.934Z,22.33
2016-06-16T00:08:43.812Z,22.33
2016-06-16T00:09:43.799Z,22.23
2016-06-16T00:10:43.787Z,22.3
2016-06-16T00:11:43.805Z,22.27
2016-06-16T00:12:43.777Z,22.27
2016-06-16T00:13:43.766Z,22.3
2016-06-16T00:14:43.721Z,22.3
2016-06-16T00:15:43.958Z,22.21
2016-06-16T00:16:43.712Z,22.24
2016-06-16T00:17:43.699Z,22.31
2016-06-16T00:18:43.686Z,22.19
2016-06-16T00:19:43.659Z,22.3
2016-06-16T00:20:43.646Z,22.38
2016-06-16T00:21:43.633Z,22.33
2016-06-16T00:22:43.730Z,22.35
2016-06-16T00:23:43.952Z,22.29
2016-06-16T00:24:43.595Z,22.35
2016-06-16T00:25:43.755Z,22.29
2016-06-16T00:26:43.570Z,22.31
2016-06-16T00:27:43.573Z,22.27
2016-06-16T00:28:43.545Z,22.33
2016-06-16T00:29:43.532Z,22.35
2016-06-16T00:30:43.614Z,22.31
2016-06-16T00:31:44.852Z,22.29
2016-06-16T00:32:43.495Z,22.3
2016-06-16T00:33:43.326Z,22.3
2016-06-16T00:34:43.455Z,22.31
2016-06-16T00:35:43.458Z,22.33
2016-06-16T00:36:43.429Z,22.38
2016-06-16T00:37:43.417Z,22.31
2016-06-16T00:38:43.607Z,22.31
2016-06-16T00:39:43.391Z,22.23
2016-06-16T00:40:43.394Z,22.29
2016-06-16T00:41:43.367Z,22.29
2016-06-16T00:42:43.354Z,22.26
2016-06-16T00:43:43.325Z,22.23
2016-06-16T00:44:43.314Z,22.33
2016-06-16T00:45:43.317Z,22.3
2016-06-16T00:46:43.787Z,22.29
2016-06-16T00:47:43.291Z,22.29
2016-06-16T00:48:43.263Z,22.27
2016-06-16T00:49:43.251Z,22.29
2016-06-16T00:50:43.238Z,22.29
2016-06-16T00:51:43.225Z,22.3
2016-06-16T00:52:43.213Z,22.29
2016-06-16T00:53:43.216Z,22.3
2016-06-16T00:54:43.625Z,22.35
2016-06-16T00:55:45.051Z,22.19
2016-06-16T00:56:43.162Z,22.38
2016-06-16T00:57:43.151Z,22.26
2016-06-16T00:58:43.138Z,22.29
2016-06-16T00:59:43.110Z,22.29
2016-06-16T01:00:43.127Z,22.38
2016-06-16T01:01:43.100Z,22.38
2016-06-16T01:02:43.728Z,22.27
2016-06-16T01:03:43.059Z,22.33
2016-06-16T01:04:43.047Z,22.33
2016-06-16T01:05:43.050Z,22.3
2016-06-16T01:06:42.881Z,22.31
2016-06-16T01:07:43.009Z,22.21
2016-06-16T01:08:42.841Z,22.3
2016-06-16T01:09:43.077Z,22.26
2016-06-16T01:10:44.269Z,22.31
2016-06-16T01:11:42.787Z,22.33
2016-06-16T01:12:42.947Z,22.35
2016-06-16T01:13:42.980Z,22.35
2016-06-16T01:14:42.765Z,22.3
2016-06-16T01:15:42.987Z,22.31
2016-06-16T01:16:42.880Z,22.3
2016-06-16T01:17:42.868Z,22.35
2016-06-16T01:18:43.808Z,22.24
2016-06-16T01:19:42.843Z,22.29
2016-06-16T01:20:42.831Z,22.31
2016-06-16T01:21:42.817Z,22.31
2016-06-16T01:22:42.805Z,22.35
2016-06-16T01:23:42.792Z,22.27
2016-06-16T01:24:42.764Z,22.35
2016-06-16T01:25:43.221Z,22.42
2016-06-16T01:26:42.958Z,22.36
2016-06-16T01:27:42.743Z,22.33
2016-06-16T01:28:42.713Z,22.36
2016-06-16T01:29:42.702Z,22.3
2016-06-16T01:30:42.705Z,22.33
2016-06-16T01:31:42.676Z,22.35
2016-06-16T01:32:42.664Z,22.31
2016-06-16T01:33:42.651Z,22.36
2016-06-16T01:34:42.998Z,22.36
2016-06-16T01:35:42.626Z,22.36
2016-06-16T01:36:42.613Z,22.38
2016-06-16T01:37:42.601Z,22.31
2016-06-16T01:38:42.589Z,22.36
2016-06-16T01:39:42.575Z,22.35
2016-06-16T01:40:43.000Z,22.36
2016-06-16T01:41:42.551Z,22.36
2016-06-16T01:42:43.898Z,22.38
2016-06-16T01:43:42.510Z,22.33
2016-06-16T01:44:42.498Z,22.39
2016-06-16T01:45:42.360Z,22.29
2016-06-16T01:46:42.472Z,22.35
2016-06-16T01:47:42.460Z,22.31
2016-06-16T01:48:42.447Z,22.35
2016-06-16T01:49:42.436Z,22.36
2016-06-16T01:50:42.422Z,22.39
2016-06-16T01:51:42.409Z,22.36
2016-06-16T01:52:42.398Z,22.38
2016-06-16T01:53:42.401Z,22.39
2016-06-16T01:54:42.371Z,22.33
2016-06-16T01:55:42.890Z,22.38
2016-06-16T01:56:42.472Z,22.39
2016-06-16T01:57:42.178Z,22.35
2016-06-16T01:58:42.306Z,22.36
2016-06-16T01:59:42.153Z,22.35
2016-06-16T02:00:42.281Z,22.31
2016-06-16T02:01:42.112Z,22.35
2016-06-16T02:02:42.319Z,22.33
2016-06-16T02:03:42.259Z,22.41
2016-06-16T02:04:42.232Z,22.29
2016-06-16T02:05:42.218Z,22.31
2016-06-16T02:06:42.206Z,22.31
2016-06-16T02:07:42.208Z,22.38
2016-06-16T02:08:42.181Z,22.3
2016-06-16T02:09:42.168Z,22.35
2016-06-16T02:10:42.156Z,22.42
2016-06-16T02:11:42.628Z,22.39
2016-06-16T02:12:42.131Z,22.35
2016-06-16T02:13:42.118Z,22.41
2016-06-16T02:14:42.090Z,22.36
2016-06-16T02:15:42.077Z,22.36
2016-06-16T02:16:42.081Z,22.36
2016-06-16T02:17:42.052Z,22.35
2016-06-16T02:18:42.055Z,22.36
2016-06-16T02:19:42.028Z,22.36
2016-06-16T02:20:42.015Z,22.36
2016-06-16T02:21:41.986Z,22.31
2016-06-16T02:22:41.833Z,22.36
2016-06-16T02:23:41.961Z,22.3
2016-06-16T02:24:41.964Z,22.33
2016-06-16T02:25:42.233Z,22.31
2016-06-16T02:26:42.252Z,22.36
2016-06-16T02:27:41.927Z,22.39
2016-06-16T02:28:41.899Z,22.35
2016-06-16T02:29:41.901Z,22.36
2016-06-16T02:30:41.889Z,22.38
2016-06-16T02:31:42.017Z,22.36
2016-06-16T02:32:41.849Z,22.3
2016-06-16T02:33:41.835Z,22.36
2016-06-16T02:34:41.855Z,22.3
2016-06-16T02:35:41.655Z,22.38
2016-06-16T02:36:41.814Z,22.33
2016-06-16T02:37:41.786Z,22.31
2016-06-16T02:38:41.773Z,22.39
2016-06-16T02:39:42.026Z,22.41
2016-06-16T02:40:41.748Z,22.39
2016-06-16T02:41:41.735Z,22.3
2016-06-16T02:42:41.723Z,22.33
2016-06-16T02:43:41.726Z,22.3
2016-06-16T02:44:41.683Z,22.27
2016-06-16T02:45:41.686Z,22.35
2016-06-16T02:46:41.672Z,22.41
2016-06-16T02:47:42.081Z,22.33
2016-06-16T02:48:41.648Z,22.39
2016-06-16T02:49:41.635Z,22.38
2016-06-16T02:50:41.606Z,22.35
2016-06-16T02:51:41.610Z,22.39
2016-06-16T02:52:41.582Z,22.36
2016-06-16T02:53:41.569Z,22.36
2016-06-16T02:54:41.556Z,22.26
2016-06-16T02:55:42.092Z,22.35
2016-06-16T02:56:41.531Z,22.31
2016-06-16T02:57:41.503Z,22.38
2016-06-16T02:58:41.507Z,22.3
2016-06-16T02:59:41.479Z,22.31
2016-06-16T03:00:41.466Z,22.39
2016-06-16T03:01:41.469Z,22.38
2016-06-16T03:02:41.456Z,22.3
2016-06-16T03:03:42.038Z,22.29
2016-06-16T03:04:41.275Z,22.29
2016-06-16T03:05:41.419Z,22.29
2016-06-16T03:06:41.390Z,22.3
2016-06-16T03:07:41.379Z,22.3
2016-06-16T03:08:41.365Z,22.3
2016-06-16T03:09:41.352Z,22.3
2016-06-16T03:10:41.324Z,22.31
2016-06-16T03:11:42.234Z,22.33
2016-06-16T03:12:41.316Z,22.29
2016-06-16T03:13:41.286Z,22.29
2016-06-16T03:14:41.289Z,22.36
2016-06-16T03:15:41.262Z,22.3
2016-06-16T03:16:41.093Z,22.33
2016-06-16T03:17:41.081Z,22.35
2016-06-16T03:18:41.240Z,22.31
2016-06-16T03:19:41.368Z,22.31
2016-06-16T03:20:41.199Z,22.29
2016-06-16T03:21:41.046Z,22.31
2016-06-16T03:22:41.174Z,22.31
2016-06-16T03:23:41.161Z,22.35
2016-06-16T03:24:41.149Z,22.38
2016-06-16T03:25:41.136Z,22.29
2016-06-16T03:26:41.217Z,22.3
2016-06-16T03:27:41.408Z,22.31
2016-06-16T03:28:41.083Z,22.36
2016-06-16T03:29:41.085Z,22.21
2016-06-16T03:30:41.074Z,22.33
2016-06-16T03:31:41.045Z,22.29
2016-06-16T03:32:41.033Z,22.35
2016-06-16T03:33:41.020Z,22.2
2016-06-16T03:34:41.008Z,22.35
2016-06-16T03:35:41.386Z,22.29
2016-06-16T03:36:40.999Z,22.35
2016-06-16T03:37:40.970Z,22.23
2016-06-16T03:38:40.957Z,22.24
2016-06-16T03:39:40.944Z,22.31
2016-06-16T03:40:40.932Z,22.21
2016-06-16T03:41:40.764Z,22.27
2016-06-16T03:42:41.157Z,22.27
2016-06-16T03:43:40.878Z,22.17
2016-06-16T03:44:40.867Z,22.3
2016-06-16T03:45:40.853Z,22.27
2016-06-16T03:46:40.841Z,22.3
2016-06-16T03:47:40.829Z,22.31
2016-06-16T03:48:40.832Z,22.3
2016-06-16T03:49:40.819Z,22.27
2016-06-16T03:50:41.042Z,22.3
2016-06-16T03:51:40.778Z,22.19
2016-06-16T03:52:40.766Z,22.29
2016-06-16T03:53:40.769Z,22.2
2016-06-16T03:54:40.741Z,22.35
2016-06-16T03:55:40.728Z,22.33
2016-06-16T03:56:40.747Z,22.31
2016-06-16T03:57:40.688Z,22.19
2016-06-16T03:58:41.035Z,22.2
2016-06-16T03:59:40.663Z,22.33
2016-06-16T04:00:40.650Z,22.33
2016-06-16T04:01:40.637Z,22.33
2016-06-16T04:02:40.640Z,22.31
2016-06-16T04:03:40.613Z,22.3
2016-06-16T04:04:40.600Z,22.3
2016-06-16T04:05:40.587Z,22.33
2016-06-16T04:06:41.074Z,22.3
2016-06-16T04:07:40.563Z,22.29
2016-06-16T04:08:40.549Z,22.33
2016-06-16T04:09:40.536Z,22.29
2016-06-16T04:10:40.525Z,22.27
2016-06-16T04:11:40.356Z,22.33
2016-06-16T04:12:40.500Z,22.29
2016-06-16T04:13:40.470Z,22.24
2016-06-16T04:14:41.068Z,22.23
2016-06-16T04:15:40.446Z,22.23
2016-06-16T04:16:40.468Z,22.23
2016-06-16T04:17:40.480Z,22.24
2016-06-16T04:18:40.506Z,22.3
2016-06-16T04:19:40.377Z,22.29
2016-06-16T04:20:40.561Z,22.21
2016-06-16T04:21:40.577Z,22.27
2016-06-16T04:22:40.579Z,22.26
2016-06-16T04:23:40.580Z,22.31
2016-06-16T04:24:40.426Z,22.21
2016-06-16T04:25:40.568Z,22.24
2016-06-16T04:26:40.612Z,22.24
2016-06-16T04:27:40.574Z,22.23
2016-06-16T04:28:40.566Z,22.3
2016-06-16T04:29:40.543Z,22.21
2016-06-16T04:30:40.629Z,22.19
2016-06-16T04:31:40.526Z,22.33
2016-06-16T04:32:40.516Z,22.29
2016-06-16T04:33:40.505Z,22.21
2016-06-16T04:34:40.495Z,22.19
2016-06-16T04:35:40.327Z,22.21
2016-06-16T04:36:40.472Z,22.24
2016-06-16T04:37:40.304Z,22.23
2016-06-16T04:38:40.637Z,22.29
2016-06-16T04:39:40.437Z,22.27
2016-06-16T04:40:40.410Z,22.17
2016-06-16T04:41:40.882Z,22.33
2016-06-16T04:42:40.386Z,22.21
2016-06-16T04:43:40.373Z,22.27
2016-06-16T04:44:40.393Z,22.33
2016-06-16T04:45:40.349Z,22.27
2016-06-16T04:46:41.399Z,22.23
2016-06-16T04:47:40.168Z,22.24
2016-06-16T04:48:40.312Z,22.21
2016-06-16T04:49:40.314Z,22.27
2016-06-16T04:50:40.287Z,22.29
2016-06-16T04:51:40.118Z,22.3
2016-06-16T04:52:40.262Z,22.33
2016-06-16T04:53:40.296Z,22.31
2016-06-16T04:54:40.674Z,22.35
2016-06-16T04:55:40.224Z,22.21
2016-06-16T04:56:40.071Z,22.35
2016-06-16T04:57:40.184Z,22.31
2016-06-16T04:58:40.170Z,22.33
2016-06-16T04:59:40.173Z,22.3
2016-06-16T05:00:40.161Z,22.31
2016-06-16T05:01:40.336Z,22.3
2016-06-16T05:02:40.120Z,22.3
2016-06-16T05:03:40.108Z,22.35
2016-06-16T05:04:40.096Z,22.33
2016-06-16T05:05:40.082Z,22.3
2016-06-16T05:06:40.070Z,22.36
2016-06-16T05:07:40.042Z,22.29
2016-06-16T05:08:40.045Z,22.3
2016-06-16T05:09:40.314Z,22.35
2016-06-16T05:10:40.004Z,22.39
2016-06-16T05:11:39.851Z,22.31
2016-06-16T05:12:39.996Z,22.38
2016-06-16T05:13:39.967Z,22.42
2016-06-16T05:14:39.955Z,22.48
2016-06-16T05:15:39.942Z,22.35
2016-06-16T05:16:39.944Z,22.35
2016-06-16T05:17:40.370Z,22.35
2016-06-16T05:18:39.904Z,22.36
2016-06-16T05:19:39.892Z,22.39
2016-06-16T05:20:39.879Z,22.35
2016-06-16T05:21:39.866Z,22.39
2016-06-16T05:22:39.697Z,22.33
2016-06-16T05:23:39.825Z,22.29
2016-06-16T05:24:39.813Z,22.27
2016-06-16T05:25:40.347Z,22.26
2016-06-16T05:26:40.023Z,22.29
2016-06-16T05:27:39.776Z,22.21
2016-06-16T05:28:39.763Z,22.27
2016-06-16T05:29:39.750Z,22.27
2016-06-16T05:30:39.737Z,22.21
2016-06-16T05:31:39.725Z,22.14
2016-06-16T05:32:41.978Z,22.17
2016-06-16T05:33:40.435Z,22.21
2016-06-16T05:34:39.688Z,22.17
2016-06-16T05:35:39.659Z,22.2
2016-06-16T05:36:39.662Z,22.15
2016-06-16T05:37:39.650Z,22.14
2016-06-16T05:38:39.637Z,22.23
2016-06-16T05:39:39.609Z,22.15
2016-06-16T05:40:39.596Z,22.26
2016-06-16T05:41:39.834Z,22.29
2016-06-16T05:42:39.572Z,22.29
2016-06-16T05:43:39.559Z,22.19
2016-06-16T05:44:39.406Z,22.21
2016-06-16T05:45:39.534Z,22.3
2016-06-16T05:46:39.521Z,22.27
2016-06-16T05:47:39.508Z,22.17
2016-06-16T05:48:39.496Z,22.3
2016-06-16T05:49:39.671Z,22.38
2016-06-16T05:50:39.471Z,22.31
2016-06-16T05:51:39.443Z,22.33
2016-06-16T05:52:39.446Z,22.35
2016-06-16T05:53:39.433Z,22.33
2016-06-16T05:54:39.406Z,22.35
2016-06-16T05:55:39.393Z,22.29
2016-06-16T05:56:39.615Z,22.29
2016-06-16T05:57:39.665Z,22.33
2016-06-16T05:58:39.355Z,22.3
2016-06-16T05:59:39.342Z,22.3
2016-06-16T06:00:39.329Z,22.35
2016-06-16T06:01:39.317Z,22.33
2016-06-16T06:02:39.352Z,22.35
2016-06-16T06:03:39.292Z,22.33
2016-06-16T06:04:39.264Z,22.39
2016-06-16T06:05:39.720Z,22.35
2016-06-16T06:06:39.254Z,22.33
2016-06-16T06:07:39.227Z,22.36
2016-06-16T06:08:39.230Z,22.41
2016-06-16T06:09:39.202Z,22.3
2016-06-16T06:10:39.189Z,22.35
2016-06-16T06:11:39.520Z,22.38
2016-06-16T06:12:39.882Z,22.44
2016-06-16T06:13:39.150Z,22.41
2016-06-16T06:14:39.139Z,22.38
2016-06-16T06:15:39.126Z,22.38
2016-06-16T06:16:39.113Z,22.42
2016-06-16T06:17:38.960Z,22.35
2016-06-16T06:18:39.088Z,22.36
2016-06-16T06:19:39.061Z,22.45
2016-06-16T06:20:39.047Z,22.44
2016-06-16T06:21:39.036Z,22.46
2016-06-16T06:22:39.038Z,22.45
2016-06-16T06:23:39.010Z,22.48
2016-06-16T06:24:38.997Z,22.44
2016-06-16T06:25:38.985Z,22.45
2016-06-16T06:26:38.988Z,22.49
2016-06-16T06:27:39.741Z,22.57
2016-06-16T06:28:38.947Z,22.33
2016-06-16T06:29:38.935Z,22.06
2016-06-16T06:30:38.922Z,21.64
2016-06-16T06:31:38.909Z,21.28
2016-06-16T06:32:38.897Z,21.28
2016-06-16T06:33:38.869Z,21.43
2016-06-16T06:34:38.857Z,21.53
2016-06-16T06:35:38.844Z,21.75
2016-06-16T06:36:38.691Z,21.93
2016-06-16T06:37:38.677Z,22.04
2016-06-16T06:38:38.821Z,22.06
2016-06-16T06:39:38.794Z,22.17
2016-06-16T06:40:38.781Z,22.19
2016-06-16T06:41:39.269Z,22.29
2016-06-16T06:42:39.600Z,22.31
2016-06-16T06:43:38.587Z,22.33
2016-06-16T06:44:38.731Z,22.31
2016-06-16T06:45:38.718Z,22.36
2016-06-16T06:46:38.737Z,22.36
2016-06-16T06:47:38.693Z,22.29
2016-06-16T06:48:38.681Z,22.39
2016-06-16T06:49:38.669Z,22.35
2016-06-16T06:50:38.640Z,22.38
2016-06-16T06:51:38.627Z,22.36
2016-06-16T06:52:38.615Z,22.33
2016-06-16T06:53:38.601Z,22.14
2016-06-16T06:54:38.730Z,21.79
2016-06-16T06:55:38.593Z,21.71
2016-06-16T06:56:38.705Z,21.53
2016-06-16T06:57:38.693Z,21.34
2016-06-16T06:58:38.524Z,21.4
2016-06-16T06:59:38.527Z,21.49
2016-06-16T07:00:38.514Z,21.68
2016-06-16T07:01:38.486Z,21.85
2016-06-16T07:02:38.318Z,21.93
2016-06-16T07:03:38.477Z,21.73
2016-06-16T07:04:38.448Z,21.58
2016-06-16T07:05:38.435Z,21.26
2016-06-16T07:06:38.424Z,21.15
2016-06-16T07:07:38.270Z,21.09
2016-06-16T07:08:38.398Z,21.12
2016-06-16T07:09:38.636Z,21.15
2016-06-16T07:10:38.373Z,21.26
2016-06-16T07:11:38.361Z,21.43
2016-06-16T07:12:39.082Z,21.51
2016-06-16T07:13:38.335Z,21.61
2016-06-16T07:14:38.307Z,21.7
2016-06-16T07:15:38.295Z,21.66
2016-06-16T07:16:38.298Z,21.77
2016-06-16T07:17:38.770Z,21.79
2016-06-16T07:18:38.257Z,21.79
2016-06-16T07:19:38.229Z,21.73
2016-06-16T07:20:38.232Z,21.75
2016-06-16T07:21:38.220Z,21.75
2016-06-16T07:22:38.191Z,21.74
2016-06-16T07:23:38.179Z,21.75
2016-06-16T07:24:38.167Z,21.75
2016-06-16T07:25:38.654Z,21.75
2016-06-16T07:26:38.157Z,21.77
2016-06-16T07:27:38.519Z,21.85
2016-06-16T07:28:38.147Z,21.89
2016-06-16T07:29:38.104Z,21.9
2016-06-16T07:30:38.122Z,21.98
2016-06-16T07:31:38.078Z,21.96
2016-06-16T07:32:38.066Z,21.89
2016-06-16T07:33:38.804Z,21.89
2016-06-16T07:34:38.041Z,21.94
2016-06-16T07:48:36.755Z,22.02
2016-06-16T07:48:44.911Z,21.98
2016-06-16T07:49:44.899Z,22.02
2016-06-16T07:50:45.589Z,22.02
2016-06-16T07:51:44.842Z,22.05
2016-06-16T07:52:44.689Z,21.96
2016-06-16T07:53:44.833Z,22.01
2016-06-16T07:54:44.665Z,22.04
2016-06-16T07:55:44.652Z,21.99
2016-06-16T07:56:44.811Z,22.12
2016-06-16T07:57:44.767Z,22.08
2016-06-16T07:58:44.660Z,22.06
2016-06-16T07:59:44.758Z,22.05
2016-06-16T08:00:44.730Z,22.09
2016-06-16T08:01:44.717Z,22.09
2016-06-16T08:02:44.736Z,22.06
2016-06-16T08:03:44.692Z,22.08
2016-06-16T08:04:44.679Z,22.12
2016-06-16T08:05:44.510Z,22.12
2016-06-16T08:06:44.858Z,22.12
2016-06-16T08:07:44.502Z,22.09
2016-06-16T08:08:44.614Z,22.08
2016-06-16T08:09:44.601Z,22.12
2016-06-16T08:10:44.589Z,22.04
2016-06-16T08:11:44.591Z,22.02
2016-06-16T08:12:44.579Z,22.06
2016-06-16T08:13:44.395Z,22.04
2016-06-16T08:14:44.881Z,22.02
2016-06-16T08:15:44.526Z,22.05
2016-06-16T08:16:44.357Z,21.99
2016-06-16T08:17:44.500Z,22.06
2016-06-16T08:18:44.489Z,22.11
2016-06-16T08:19:44.491Z,22.09
2016-06-16T08:20:44.306Z,22.09
2016-06-16T08:21:44.451Z,22.08
2016-06-16T08:22:44.875Z,22.12
2016-06-16T08:23:44.410Z,22.11
2016-06-16T08:24:44.412Z,22.08
2016-06-16T08:25:44.384Z,22.14
2016-06-16T08:26:44.074Z,22.09
2016-06-16T08:27:44.360Z,22.14
2016-06-16T08:28:44.347Z,22.09
2016-06-16T08:29:44.334Z,22.14
2016-06-16T08:30:44.322Z,22.12
2016-06-16T08:31:44.309Z,22.12
2016-06-16T08:32:44.296Z,22.11
2016-06-16T08:33:44.284Z,22.15
2016-06-16T08:34:44.116Z,22.14
2016-06-16T08:35:44.244Z,22.2
2016-06-16T08:36:44.247Z,22.27
2016-06-16T08:37:44.077Z,22.2
2016-06-16T08:38:44.222Z,22.3
2016-06-16T08:39:44.037Z,22.24
2016-06-16T08:40:44.025Z,22.19
2016-06-16T08:41:44.168Z,22.17
2016-06-16T08:42:44.157Z,22.15
2016-06-16T08:43:43.988Z,22.15
2016-06-16T08:44:44.131Z,22.17
2016-06-16T08:45:44.119Z,22.15
2016-06-16T08:46:44.106Z,22.09
2016-06-16T08:47:44.092Z,22.11
2016-06-16T08:48:16.581Z,22.27
2016-06-16T08:48:29.471Z,22.24
2016-06-16T08:49:29.646Z,22.24
2016-06-16T08:50:29.463Z,22.24
2016-06-16T08:51:29.434Z,22.21
2016-06-16T08:52:29.405Z,22.27
2016-06-16T08:53:29.237Z,22.21
2016-06-16T08:54:29.397Z,22.31
2016-06-16T08:55:29.368Z,22.29
2016-06-16T08:56:29.355Z,22.29
2016-06-16T08:57:29.687Z,22.3
2016-06-16T08:58:29.330Z,22.19
2016-06-16T08:59:29.318Z,22.2
2016-06-16T09:00:29.305Z,22.17
2016-06-16T09:01:29.293Z,22.3
2016-06-16T09:02:29.264Z,22.3
2016-06-16T09:03:29.252Z,22.12
2016-06-16T09:04:29.239Z,22.15
2016-06-16T09:05:29.681Z,22.15
2016-06-16T09:06:29.214Z,22.24
2016-06-16T09:07:29.217Z,22.19
2016-06-16T09:08:29.189Z,22.2
2016-06-16T09:09:29.177Z,22.09
2016-06-16T09:10:29.180Z,22.11
2016-06-16T09:11:29.152Z,22.15
2016-06-16T09:12:28.966Z,22.21
2016-06-16T09:13:29.127Z,22.14
2016-06-16T09:14:29.098Z,22.21
2016-06-16T09:15:29.101Z,22.15
2016-06-16T09:16:29.104Z,22.19
2016-06-16T09:17:29.107Z,22.14
2016-06-16T09:18:29.048Z,22.19
2016-06-16T09:19:29.036Z,22.21
2016-06-16T09:20:29.023Z,22.21
2016-06-16T09:21:29.011Z,22.24
2016-06-16T09:22:28.997Z,22.26
2016-06-16T09:23:28.828Z,22.21
2016-06-16T09:24:28.989Z,22.26
2016-06-16T09:25:28.960Z,22.21
2016-06-16T09:26:28.932Z,22.21
2016-06-16T09:27:28.920Z,22.21
2016-06-16T09:28:28.938Z,22.26
2016-06-16T09:29:28.910Z,22.31
2016-06-16T09:30:28.882Z,22.2
2016-06-16T09:31:28.869Z,22.29
2016-06-16T09:32:28.872Z,22.38
2016-06-16T09:33:28.860Z,22.44
2016-06-16T09:34:28.816Z,22.49
2016-06-16T09:35:28.820Z,22.52
2016-06-16T09:36:28.666Z,22.63
2016-06-16T09:37:28.810Z,22.64
2016-06-16T09:38:28.718Z,22.66
2016-06-16T09:39:28.769Z,22.63
2016-06-16T09:40:28.756Z,22.74
2016-06-16T09:41:28.744Z,22.69
2016-06-16T09:42:28.731Z,22.69
2016-06-16T09:43:28.562Z,22.7
2016-06-16T09:44:28.690Z,22.74
2016-06-16T09:45:28.709Z,22.76
2016-06-16T09:46:28.713Z,22.76
2016-06-16T09:47:28.496Z,22.82
2016-06-16T09:48:28.640Z,22.76
2016-06-16T09:49:28.472Z,22.78
2016-06-16T09:50:28.630Z,22.78
2016-06-16T09:51:28.603Z,22.81
2016-06-16T09:52:28.606Z,22.74
2016-06-16T09:53:28.578Z,22.75
2016-06-16T09:54:28.705Z,22.78
2016-06-16T09:55:28.552Z,22.72
2016-06-16T09:56:28.540Z,22.76
2016-06-16T09:57:28.527Z,22.74
2016-06-16T09:58:28.343Z,22.75
2016-06-16T09:59:28.346Z,22.72
2016-06-16T10:00:28.474Z,22.82
2016-06-16T10:01:28.461Z,22.74
2016-06-16T10:02:28.746Z,22.7
2016-06-16T10:03:28.437Z,22.69
2016-06-16T10:04:28.455Z,22.7
2016-06-16T10:05:28.958Z,22.7
2016-06-16T10:06:28.446Z,22.67
2016-06-16T10:07:28.229Z,22.74
2016-06-16T10:08:28.374Z,22.67
2016-06-16T10:09:28.377Z,22.69
2016-06-16T10:10:28.802Z,22.72
2016-06-16T10:11:28.383Z,22.69
2016-06-16T10:12:28.323Z,22.74
2016-06-16T10:13:28.326Z,22.69
2016-06-16T10:14:27.986Z,22.69
2016-06-16T10:15:28.318Z,22.67
2016-06-16T10:16:28.288Z,22.75
2016-06-16T10:17:28.245Z,22.74
2016-06-16T10:18:28.763Z,22.75
2016-06-16T10:19:28.064Z,22.78
2016-06-16T10:20:28.223Z,22.85
2016-06-16T10:21:28.195Z,22.74
2016-06-16T10:22:28.229Z,22.76
2016-06-16T10:23:28.170Z,22.75
2016-06-16T10:24:28.157Z,22.78
2016-06-16T10:25:28.144Z,22.79
2016-06-16T10:26:28.069Z,22.79
2016-06-16T10:27:28.120Z,22.79
2016-06-16T10:28:27.950Z,22.78
2016-06-16T10:29:28.095Z,22.81
2016-06-16T10:30:27.926Z,22.78
2016-06-16T10:31:28.070Z,22.84
2016-06-16T10:32:27.916Z,22.82
2016-06-16T10:33:27.888Z,22.81
2016-06-16T10:34:28.062Z,22.79
2016-06-16T10:35:28.004Z,22.86
2016-06-16T10:36:27.835Z,22.81
2016-06-16T10:37:27.838Z,22.88
2016-06-16T10:38:27.966Z,22.67
2016-06-16T10:39:27.953Z,22.38
2016-06-16T10:40:27.957Z,22.3
2016-06-16T10:41:27.928Z,22.42
2016-06-16T10:42:28.071Z,22.48
2016-06-16T10:43:27.903Z,22.57
2016-06-16T10:44:27.922Z,22.57
2016-06-16T10:45:27.894Z,22.63
2016-06-16T10:46:27.866Z,22.44
2016-06-16T10:47:27.853Z,22.44
2016-06-16T10:48:27.684Z,22.05
2016-06-16T10:49:27.718Z,21.79
2016-06-16T10:50:28.112Z,21.81
2016-06-16T10:51:27.631Z,22.05
2016-06-16T10:52:27.774Z,21.93
2016-06-16T10:53:27.762Z,21.93
2016-06-16T10:54:27.750Z,21.86
2016-06-16T10:55:27.736Z,21.85
2016-06-16T10:56:27.725Z,21.94
2016-06-16T10:57:27.712Z,21.9
2016-06-16T10:58:28.153Z,21.86
2016-06-16T10:59:27.670Z,21.93
2016-06-16T11:00:27.659Z,22.08
2016-06-16T11:01:27.662Z,22.2
2016-06-16T11:02:27.633Z,22.29
2016-06-16T11:03:27.466Z,22.26
2016-06-16T11:04:27.608Z,22.38
2016-06-16T11:07:49.165Z,22.08
2016-06-16T11:09:33.233Z,22.09
2016-06-16T11:09:49.077Z,22.05
2016-06-16T11:10:49.064Z,21.99
2016-06-16T11:11:49.052Z,22.09
2016-06-16T11:13:39.574Z,22.2
2016-06-16T11:13:52.011Z,22.3
2016-06-16T11:14:51.983Z,22.31
2016-06-16T11:15:51.971Z,22.36
2016-06-16T11:16:51.958Z,22.38
2016-06-16T11:17:51.945Z,22.41
2016-06-16T11:18:51.933Z,22.45
2016-06-16T11:19:51.920Z,22.35
2016-06-16T11:20:52.846Z,22.39
2016-06-16T11:21:51.880Z,22.44
2016-06-16T11:22:51.868Z,22.41
2016-06-16T11:23:51.871Z,22.26
2016-06-16T11:24:51.842Z,22.15
2016-06-16T11:25:51.830Z,22.04
2016-06-16T11:26:51.816Z,21.91
2016-06-16T11:27:51.804Z,21.94
2016-06-16T11:28:52.136Z,21.9
2016-06-16T11:29:51.795Z,21.91
2016-06-16T11:30:51.610Z,21.91
2016-06-16T11:31:51.738Z,21.89
2016-06-16T11:32:51.585Z,21.89
2016-06-16T11:33:51.714Z,21.9
2016-06-16T11:34:51.700Z,22.04
2016-06-16T11:35:51.798Z,22.17
2016-06-16T11:36:52.176Z,22.26
2016-06-16T11:37:51.647Z,22.36
2016-06-16T11:38:51.634Z,22.38
2016-06-16T11:39:51.623Z,22.38
2016-06-16T11:40:51.610Z,22.51
2016-06-16T11:41:51.613Z,22.57
2016-06-16T11:42:51.428Z,22.51
2016-06-16T11:43:51.775Z,22.56
2016-06-16T11:44:51.559Z,22.61
2016-06-16T11:45:51.547Z,22.76
2016-06-16T11:46:51.520Z,22.75
2016-06-16T11:47:51.506Z,22.74
2016-06-16T11:48:51.493Z,22.81
2016-06-16T11:49:51.481Z,22.85
2016-06-16T11:50:51.671Z,22.91
2016-06-16T11:51:51.456Z,22.84
2016-06-16T11:52:51.459Z,22.82
2016-06-16T11:53:51.431Z,22.84
2016-06-16T11:54:51.262Z,22.91
2016-06-16T11:55:51.406Z,22.85
2016-06-16T11:56:51.237Z,22.82
2016-06-16T11:57:51.381Z,22.91
2016-06-16T11:58:51.713Z,22.86
2016-06-16T11:59:51.356Z,22.91
2016-06-16T12:00:51.187Z,23
2016-06-16T12:01:51.175Z,22.99
2016-06-16T12:02:51.303Z,22.93
2016-06-16T12:03:51.305Z,23.06
2016-06-16T12:04:51.278Z,23.15
2016-06-16T12:05:51.265Z,23
2016-06-16T12:06:51.690Z,22.99
2016-06-16T12:07:51.240Z,23.11
2016-06-16T12:08:51.227Z,23.11
2016-06-16T12:09:51.246Z,22.94
2016-06-16T12:10:51.186Z,23.01
2016-06-16T12:11:51.189Z,22.99
2016-06-16T12:12:51.161Z,23.07
2016-06-16T12:13:51.148Z,23.04
2016-06-16T12:14:51.543Z,23.06
2016-06-16T12:15:51.140Z,22.97
2016-06-16T12:16:51.126Z,22.99
2016-06-16T12:17:50.958Z,22.94
2016-06-16T12:18:50.852Z,23.01
2016-06-16T12:19:51.074Z,23.09
2016-06-16T12:20:51.077Z,23.04
2016-06-16T12:21:51.064Z,22.96
2016-06-16T12:22:51.583Z,22.99
2016-06-16T12:23:51.023Z,22.97
2016-06-16T12:24:51.027Z,23.16
2016-06-16T12:25:50.857Z,23.12
2016-06-16T12:26:50.829Z,22.96
2016-06-16T12:27:50.973Z,22.99
2016-06-16T12:28:50.805Z,23.04
2016-06-16T12:29:50.948Z,23.11
2016-06-16T12:30:50.983Z,23.07
2016-06-16T12:31:50.923Z,23.09
2016-06-16T12:32:50.911Z,23.07
2016-06-16T12:33:50.898Z,23.12
2016-06-16T12:34:50.885Z,23.18
2016-06-16T12:35:50.857Z,23.06
2016-06-16T12:36:50.844Z,23.15
2016-06-16T12:37:50.833Z,23.09
2016-06-16T12:38:51.883Z,23.07
2016-06-16T12:39:50.807Z,23.14
2016-06-16T12:40:50.639Z,23.15
2016-06-16T12:41:50.781Z,23.06
2016-06-16T12:42:50.612Z,22.97
2016-06-16T12:43:50.757Z,22.88
2016-06-16T12:44:50.743Z,22.84
2016-06-16T12:45:50.732Z,22.78
2016-06-16T12:46:51.782Z,22.74
2016-06-16T12:47:50.550Z,22.76
2016-06-16T12:48:50.694Z,22.79
2016-06-16T12:49:50.681Z,22.78
2016-06-16T12:50:50.669Z,22.76
2016-06-16T12:51:50.657Z,22.7
2016-06-16T12:52:50.644Z,22.69
2016-06-16T12:58:57.803Z,22.66
2016-06-16T12:59:57.759Z,22.64
2016-06-16T13:00:57.746Z,22.66
2016-06-16T13:01:57.735Z,22.74
2016-06-16T13:02:57.738Z,22.66
2016-06-16T13:03:57.725Z,22.59
2016-06-16T13:04:57.728Z,22.57
2016-06-16T13:05:58.308Z,22.6
2016-06-16T13:06:57.687Z,22.69
2016-06-16T13:07:57.550Z,22.78
2016-06-16T13:08:57.881Z,22.89
2016-06-16T13:09:57.649Z,22.84
2016-06-16T13:10:57.497Z,22.85
2016-06-16T13:11:57.485Z,22.89
2016-06-16T13:12:57.597Z,22.86
2016-06-16T13:13:58.037Z,22.97